EZY34KL LEMD-EGKK
Flight info
| Callsign | EZY34KL |
|---|---|
| Flight time | 1h 44m |
| Altitude | 36000 |
| Route | SIE N865 DELOG DCT DEGEX DCT OZNOH DCT JSY/N0425F340 DCT REVTU UP88 VASUX |
| Aircraft | A21N/M-SDE2E3FGHIJ1RWXYZ/LB1G1 |
Departure
| Time | 2026-05-06 19:19 |
|---|---|
| Airport | Adolfo Suárez Madrid–Barajas Airport (LEMD) |
Arrival
| Time | 2026-05-06 21:03 |
|---|---|
| Airport | London Gatwick Airport (EGKK) |
| Time | Latitude | Longitude | Altitude | Speed | Heading |
|---|---|---|---|---|---|
| 2026-05-06 18:19 | 40.47272 | -3.57015 | 1993 ft | 0 kts | 262° |
| 2026-05-06 19:04 | 40.47274 | -3.56993 | 1993 ft | 4 kts | 262° |
| 2026-05-06 19:05 | 40.47277 | -3.56962 | 1993 ft | 3 kts | 262° |
| 2026-05-06 19:05 | 40.47276 | -3.56933 | 1992 ft | 5 kts | 305° |
| 2026-05-06 19:05 | 40.47258 | -3.56921 | 1992 ft | 4 kts | 6° |
| 2026-05-06 19:05 | 40.47233 | -3.56925 | 1991 ft | 4 kts | 7° |
| 2026-05-06 19:06 | 40.47232 | -3.56926 | 1991 ft | 1 kts | 7° |
| 2026-05-06 19:09 | 40.47234 | -3.56925 | 1991 ft | 1 kts | 7° |
| 2026-05-06 19:09 | 40.47251 | -3.56922 | 1992 ft | 4 kts | 9° |
| 2026-05-06 19:09 | 40.47284 | -3.56909 | 1992 ft | 6 kts | 23° |
| 2026-05-06 19:10 | 40.47324 | -3.56867 | 1993 ft | 9 kts | 39° |
| 2026-05-06 19:10 | 40.47388 | -3.56870 | 1993 ft | 11 kts | 328° |
| 2026-05-06 19:10 | 40.47456 | -3.56938 | 1995 ft | 14 kts | 322° |
| 2026-05-06 19:10 | 40.47537 | -3.57021 | 1998 ft | 16 kts | 323° |
| 2026-05-06 19:11 | 40.47628 | -3.57117 | 2002 ft | 17 kts | 327° |
| 2026-05-06 19:11 | 40.47727 | -3.57214 | 2004 ft | 18 kts | 322° |
| 2026-05-06 19:11 | 40.47823 | -3.57312 | 2008 ft | 17 kts | 322° |
| 2026-05-06 19:11 | 40.47912 | -3.57403 | 2008 ft | 15 kts | 322° |
| 2026-05-06 19:12 | 40.47998 | -3.57488 | 2006 ft | 16 kts | 324° |
| 2026-05-06 19:12 | 40.48086 | -3.57579 | 2005 ft | 16 kts | 322° |
| 2026-05-06 19:12 | 40.48177 | -3.57671 | 2002 ft | 17 kts | 322° |
| 2026-05-06 19:12 | 40.48270 | -3.57764 | 1999 ft | 15 kts | 323° |
| 2026-05-06 19:13 | 40.48330 | -3.57828 | 1996 ft | 10 kts | 321° |
| 2026-05-06 19:13 | 40.48391 | -3.57883 | 1997 ft | 11 kts | 328° |
| 2026-05-06 19:13 | 40.48461 | -3.57940 | 2000 ft | 13 kts | 328° |
| 2026-05-06 19:13 | 40.48546 | -3.58009 | 2004 ft | 16 kts | 327° |
| 2026-05-06 19:14 | 40.48625 | -3.58047 | 2008 ft | 9 kts | 357° |
| 2026-05-06 19:14 | 40.48694 | -3.58050 | 2005 ft | 11 kts | 358° |
| 2026-05-06 19:14 | 40.48773 | -3.58051 | 2006 ft | 12 kts | 360° |
| 2026-05-06 19:14 | 40.48845 | -3.58031 | 2008 ft | 9 kts | 46° |
| 2026-05-06 19:15 | 40.48858 | -3.57944 | 2004 ft | 11 kts | 90° |
| 2026-05-06 19:15 | 40.48857 | -3.57843 | 2001 ft | 12 kts | 90° |
| 2026-05-06 19:15 | 40.48857 | -3.57745 | 1998 ft | 10 kts | 90° |
| 2026-05-06 19:15 | 40.48868 | -3.57651 | 1995 ft | 11 kts | 61° |
| 2026-05-06 19:16 | 40.48938 | -3.57618 | 1995 ft | 11 kts | 358° |
| 2026-05-06 19:16 | 40.49016 | -3.57620 | 1995 ft | 12 kts | 0° |
| 2026-05-06 19:16 | 40.49091 | -3.57620 | 1995 ft | 11 kts | 360° |
| 2026-05-06 19:16 | 40.49151 | -3.57618 | 1994 ft | 7 kts | 10° |
| 2026-05-06 19:17 | 40.49193 | -3.57578 | 1993 ft | 8 kts | 65° |
| 2026-05-06 19:17 | 40.49217 | -3.57504 | 1991 ft | 9 kts | 68° |
| 2026-05-06 19:17 | 40.49266 | -3.57451 | 1988 ft | 10 kts | 5° |
| 2026-05-06 19:17 | 40.49279 | -3.57450 | 1988 ft | 0 kts | 0° |
| 2026-05-06 19:18 | 40.49307 | -3.57450 | 1988 ft | 23 kts | 0° |
| 2026-05-06 19:18 | 40.49713 | -3.57453 | 1991 ft | 92 kts | 360° |
| 2026-05-06 19:18 | 40.50543 | -3.57459 | 1999 ft | 143 kts | 359° |
| 2026-05-06 19:18 | 40.51643 | -3.57470 | 2008 ft | 176 kts | 359° |
| 2026-05-06 19:19 | 40.52861 | -3.57471 | 2506 ft | 174 kts | 0° |
| 2026-05-06 19:19 | 40.54114 | -3.57491 | 2910 ft | 187 kts | 358° |
| 2026-05-06 19:19 | 40.55452 | -3.57571 | 3344 ft | 199 kts | 351° |
| 2026-05-06 19:19 | 40.56764 | -3.58267 | 3841 ft | 212 kts | 322° |
| 2026-05-06 19:20 | 40.57690 | -3.59791 | 4525 ft | 219 kts | 294° |
| 2026-05-06 19:20 | 40.58317 | -3.61632 | 5314 ft | 224 kts | 304° |
| 2026-05-06 19:20 | 40.59466 | -3.63044 | 6060 ft | 229 kts | 322° |
| 2026-05-06 19:20 | 40.60724 | -3.64346 | 6855 ft | 233 kts | 321° |
| 2026-05-06 19:21 | 40.61999 | -3.65706 | 7628 ft | 237 kts | 321° |
| 2026-05-06 19:21 | 40.63303 | -3.67060 | 8375 ft | 244 kts | 327° |
| 2026-05-06 19:21 | 40.64875 | -3.67833 | 8900 ft | 245 kts | 356° |
| 2026-05-06 19:21 | 40.66535 | -3.67736 | 9589 ft | 251 kts | 7° |
| 2026-05-06 19:22 | 40.68342 | -3.67421 | 10323 ft | 257 kts | 7° |
| 2026-05-06 19:22 | 40.70060 | -3.67127 | 10909 ft | 265 kts | 6° |
| 2026-05-06 19:22 | 40.71928 | -3.66827 | 11484 ft | 276 kts | 6° |
| 2026-05-06 19:22 | 40.73867 | -3.66529 | 12019 ft | 288 kts | 6° |
| 2026-05-06 19:23 | 40.75905 | -3.66224 | 12558 ft | 300 kts | 5° |
| 2026-05-06 19:23 | 40.78025 | -3.65914 | 13089 ft | 312 kts | 5° |
| 2026-05-06 19:23 | 40.80228 | -3.65594 | 13618 ft | 324 kts | 5° |
| 2026-05-06 19:23 | 40.82506 | -3.65263 | 14137 ft | 336 kts | 5° |
| 2026-05-06 19:24 | 40.84862 | -3.64922 | 14756 ft | 343 kts | 5° |
| 2026-05-06 19:24 | 40.87246 | -3.64576 | 15476 ft | 346 kts | 5° |
| 2026-05-06 19:24 | 40.89647 | -3.64228 | 16186 ft | 349 kts | 5° |
| 2026-05-06 19:24 | 40.91249 | -3.63994 | 16642 ft | 351 kts | 5° |
| 2026-05-06 19:25 | 40.93690 | -3.63640 | 17307 ft | 354 kts | 4° |
| 2026-05-06 19:25 | 40.96149 | -3.63285 | 17959 ft | 357 kts | 4° |
| 2026-05-06 19:25 | 40.98632 | -3.62923 | 18603 ft | 361 kts | 4° |
| 2026-05-06 19:25 | 41.01138 | -3.62667 | 19212 ft | 362 kts | 357° |
| 2026-05-06 19:26 | 41.03659 | -3.62860 | 19808 ft | 365 kts | 353° |
| 2026-05-06 19:26 | 41.06203 | -3.63146 | 20374 ft | 368 kts | 353° |
| 2026-05-06 19:26 | 41.08768 | -3.63437 | 20941 ft | 371 kts | 353° |
| 2026-05-06 19:26 | 41.11351 | -3.63721 | 21484 ft | 375 kts | 353° |
| 2026-05-06 19:27 | 41.13961 | -3.63996 | 22020 ft | 378 kts | 353° |
| 2026-05-06 19:27 | 41.16594 | -3.64272 | 22543 ft | 381 kts | 353° |
| 2026-05-06 19:27 | 41.19244 | -3.64546 | 23052 ft | 385 kts | 353° |
| 2026-05-06 19:27 | 41.21934 | -3.64824 | 23553 ft | 388 kts | 353° |
| 2026-05-06 19:28 | 41.24630 | -3.65104 | 24039 ft | 390 kts | 353° |
| 2026-05-06 19:28 | 41.27347 | -3.65389 | 24513 ft | 393 kts | 353° |
| 2026-05-06 19:28 | 41.30079 | -3.65675 | 24971 ft | 396 kts | 353° |
| 2026-05-06 19:28 | 41.32839 | -3.65961 | 25420 ft | 399 kts | 353° |
| 2026-05-06 19:29 | 41.35621 | -3.66250 | 25851 ft | 402 kts | 353° |
| 2026-05-06 19:29 | 41.38374 | -3.66537 | 26272 ft | 404 kts | 353° |
| 2026-05-06 19:29 | 41.41213 | -3.66835 | 26680 ft | 406 kts | 353° |
| 2026-05-06 19:29 | 41.44054 | -3.67133 | 27086 ft | 409 kts | 353° |
| 2026-05-06 19:30 | 41.46897 | -3.67430 | 27479 ft | 411 kts | 352° |
| 2026-05-06 19:30 | 41.49753 | -3.67730 | 27850 ft | 413 kts | 352° |
| 2026-05-06 19:30 | 41.52620 | -3.68029 | 28217 ft | 415 kts | 352° |
| 2026-05-06 19:30 | 41.55513 | -3.68333 | 28562 ft | 417 kts | 352° |
| 2026-05-06 19:31 | 41.58417 | -3.68639 | 28902 ft | 419 kts | 352° |
| 2026-05-06 19:31 | 41.61329 | -3.68945 | 29236 ft | 421 kts | 352° |
| 2026-05-06 19:31 | 41.67195 | -3.69565 | 29898 ft | 424 kts | 352° |
| 2026-05-06 19:32 | 41.70145 | -3.69876 | 30200 ft | 426 kts | 352° |
| 2026-05-06 19:32 | 41.73111 | -3.70187 | 30497 ft | 428 kts | 352° |
| 2026-05-06 19:32 | 41.76031 | -3.70494 | 30799 ft | 429 kts | 351° |
| 2026-05-06 19:32 | 41.79070 | -3.70817 | 31080 ft | 431 kts | 351° |
| 2026-05-06 19:33 | 41.82068 | -3.71136 | 31338 ft | 433 kts | 352° |
| 2026-05-06 19:33 | 41.85076 | -3.71457 | 31587 ft | 435 kts | 352° |
| 2026-05-06 19:33 | 41.88098 | -3.71777 | 31842 ft | 437 kts | 351° |
| 2026-05-06 19:33 | 41.91093 | -3.72095 | 32115 ft | 438 kts | 351° |
| 2026-05-06 19:34 | 41.94132 | -3.72416 | 32394 ft | 438 kts | 351° |
| 2026-05-06 19:34 | 41.97168 | -3.72739 | 32723 ft | 438 kts | 351° |
| 2026-05-06 19:34 | 42.00205 | -3.73059 | 33056 ft | 437 kts | 351° |
| 2026-05-06 19:34 | 42.03242 | -3.73383 | 33373 ft | 436 kts | 351° |
| 2026-05-06 19:35 | 42.06263 | -3.73705 | 33673 ft | 435 kts | 351° |
| 2026-05-06 19:35 | 42.09277 | -3.74025 | 33930 ft | 435 kts | 351° |
| 2026-05-06 19:35 | 42.15306 | -3.74668 | 33978 ft | 434 kts | 351° |
| 2026-05-06 19:36 | 42.21318 | -3.75310 | 33963 ft | 433 kts | 351° |
| 2026-05-06 19:36 | 42.27329 | -3.75957 | 33959 ft | 433 kts | 351° |
| 2026-05-06 19:37 | 42.33340 | -3.76605 | 33958 ft | 433 kts | 351° |
| 2026-05-06 19:37 | 42.39348 | -3.77249 | 33982 ft | 433 kts | 351° |
| 2026-05-06 19:38 | 42.45345 | -3.77899 | 33985 ft | 432 kts | 351° |
| 2026-05-06 19:38 | 42.51342 | -3.78552 | 33985 ft | 432 kts | 351° |
| 2026-05-06 19:39 | 42.57344 | -3.79199 | 34003 ft | 432 kts | 351° |
| 2026-05-06 19:39 | 42.63330 | -3.79844 | 34006 ft | 432 kts | 352° |
| 2026-05-06 19:40 | 42.69342 | -3.80500 | 34002 ft | 434 kts | 352° |
| 2026-05-06 19:40 | 42.75314 | -3.81153 | 34000 ft | 433 kts | 352° |
| 2026-05-06 19:41 | 42.81361 | -3.81812 | 33992 ft | 433 kts | 352° |
| 2026-05-06 19:41 | 42.87366 | -3.82470 | 34000 ft | 432 kts | 352° |
| 2026-05-06 19:42 | 42.93360 | -3.83124 | 34003 ft | 432 kts | 352° |
| 2026-05-06 19:42 | 42.99290 | -3.83775 | 34000 ft | 431 kts | 352° |
| 2026-05-06 19:43 | 43.05328 | -3.84441 | 34002 ft | 431 kts | 352° |
| 2026-05-06 19:43 | 43.11256 | -3.85094 | 34013 ft | 430 kts | 352° |
| 2026-05-06 19:44 | 43.17212 | -3.85749 | 34025 ft | 430 kts | 352° |
| 2026-05-06 19:44 | 43.23189 | -3.86411 | 34020 ft | 429 kts | 352° |
| 2026-05-06 19:45 | 43.29145 | -3.87072 | 34018 ft | 429 kts | 352° |
| 2026-05-06 19:45 | 43.35090 | -3.87734 | 34017 ft | 428 kts | 352° |
| 2026-05-06 19:46 | 43.41033 | -3.88394 | 34016 ft | 428 kts | 352° |
| 2026-05-06 19:46 | 43.46940 | -3.89056 | 34021 ft | 428 kts | 352° |
| 2026-05-06 19:47 | 43.52890 | -3.89718 | 34025 ft | 428 kts | 353° |
| 2026-05-06 19:47 | 43.58734 | -3.90370 | 34013 ft | 427 kts | 353° |
| 2026-05-06 19:48 | 43.64650 | -3.91034 | 34025 ft | 427 kts | 353° |
| 2026-05-06 19:48 | 43.70579 | -3.91699 | 34019 ft | 426 kts | 353° |
| 2026-05-06 19:49 | 43.76481 | -3.92365 | 34018 ft | 427 kts | 353° |
| 2026-05-06 19:49 | 43.82413 | -3.92944 | 34012 ft | 428 kts | 359° |
| 2026-05-06 19:50 | 43.88358 | -3.92024 | 34021 ft | 431 kts | 5° |
| 2026-05-06 19:50 | 43.94289 | -3.90868 | 34016 ft | 430 kts | 5° |
| 2026-05-06 19:51 | 44.00226 | -3.89750 | 34021 ft | 430 kts | 5° |
| 2026-05-06 19:51 | 44.06161 | -3.88648 | 34017 ft | 430 kts | 5° |
| 2026-05-06 19:52 | 44.12100 | -3.87550 | 34012 ft | 430 kts | 5° |
| 2026-05-06 19:52 | 44.18031 | -3.86447 | 34028 ft | 430 kts | 5° |
| 2026-05-06 19:53 | 44.23971 | -3.85340 | 34022 ft | 430 kts | 5° |
| 2026-05-06 19:53 | 44.29902 | -3.84231 | 34022 ft | 430 kts | 5° |
| 2026-05-06 19:54 | 44.35792 | -3.83128 | 34022 ft | 430 kts | 5° |
| 2026-05-06 19:54 | 44.41717 | -3.82018 | 34018 ft | 429 kts | 5° |
| 2026-05-06 19:55 | 44.47635 | -3.80904 | 34023 ft | 429 kts | 5° |
| 2026-05-06 19:55 | 44.53554 | -3.79787 | 34021 ft | 429 kts | 5° |
| 2026-05-06 19:56 | 44.59469 | -3.78681 | 34023 ft | 429 kts | 5° |
| 2026-05-06 19:56 | 44.65385 | -3.77559 | 34023 ft | 429 kts | 5° |
| 2026-05-06 19:57 | 44.71294 | -3.76442 | 34020 ft | 428 kts | 5° |
| 2026-05-06 19:57 | 44.77187 | -3.75303 | 34024 ft | 429 kts | 8° |
| 2026-05-06 19:58 | 44.82984 | -3.73203 | 34026 ft | 430 kts | 13° |
| 2026-05-06 19:58 | 44.88748 | -3.70947 | 34021 ft | 430 kts | 13° |
| 2026-05-06 19:59 | 44.94508 | -3.68717 | 34016 ft | 429 kts | 13° |
| 2026-05-06 19:59 | 45.00265 | -3.66502 | 34016 ft | 429 kts | 13° |
| 2026-05-06 20:00 | 45.06020 | -3.64279 | 34015 ft | 429 kts | 13° |
| 2026-05-06 20:00 | 45.11777 | -3.62057 | 34010 ft | 428 kts | 13° |
| 2026-05-06 20:01 | 45.17517 | -3.59845 | 34008 ft | 428 kts | 13° |
| 2026-05-06 20:01 | 45.23259 | -3.57618 | 34010 ft | 427 kts | 13° |
| 2026-05-06 20:02 | 45.28987 | -3.55375 | 34008 ft | 427 kts | 13° |
| 2026-05-06 20:02 | 45.34720 | -3.53139 | 34005 ft | 427 kts | 13° |
| 2026-05-06 20:03 | 45.40450 | -3.50889 | 34011 ft | 427 kts | 13° |
| 2026-05-06 20:03 | 45.46168 | -3.48629 | 34012 ft | 427 kts | 13° |
| 2026-05-06 20:04 | 45.51889 | -3.46376 | 34009 ft | 426 kts | 13° |
| 2026-05-06 20:04 | 45.57608 | -3.44134 | 34006 ft | 426 kts | 13° |
| 2026-05-06 20:05 | 45.63329 | -3.41877 | 34012 ft | 426 kts | 13° |
| 2026-05-06 20:05 | 45.69001 | -3.39632 | 34012 ft | 426 kts | 13° |
| 2026-05-06 20:06 | 45.74714 | -3.37367 | 34010 ft | 426 kts | 13° |
| 2026-05-06 20:06 | 45.80419 | -3.35110 | 34000 ft | 426 kts | 13° |
| 2026-05-06 20:07 | 45.86131 | -3.32838 | 33999 ft | 426 kts | 13° |
| 2026-05-06 20:07 | 45.91837 | -3.30559 | 34002 ft | 425 kts | 13° |
| 2026-05-06 20:08 | 45.97547 | -3.28288 | 34000 ft | 426 kts | 13° |
| 2026-05-06 20:08 | 46.03249 | -3.25994 | 34000 ft | 425 kts | 14° |
| 2026-05-06 20:09 | 46.08944 | -3.23700 | 33998 ft | 425 kts | 14° |
| 2026-05-06 20:09 | 46.14636 | -3.21413 | 33999 ft | 425 kts | 13° |
| 2026-05-06 20:10 | 46.20329 | -3.19122 | 34000 ft | 424 kts | 14° |
| 2026-05-06 20:10 | 46.26015 | -3.16823 | 33999 ft | 424 kts | 14° |
| 2026-05-06 20:11 | 46.30739 | -3.14918 | 34000 ft | 424 kts | 13° |
| 2026-05-06 20:11 | 46.36430 | -3.12622 | 33997 ft | 424 kts | 14° |
| 2026-05-06 20:12 | 46.42109 | -3.10312 | 34001 ft | 424 kts | 14° |
| 2026-05-06 20:12 | 46.47789 | -3.07991 | 34006 ft | 424 kts | 14° |
| 2026-05-06 20:13 | 46.53474 | -3.05667 | 34001 ft | 424 kts | 14° |
| 2026-05-06 20:13 | 46.59156 | -3.03341 | 34000 ft | 424 kts | 14° |
| 2026-05-06 20:14 | 46.64837 | -3.01009 | 33997 ft | 425 kts | 14° |
| 2026-05-06 20:14 | 46.70529 | -2.98681 | 33991 ft | 425 kts | 14° |
| 2026-05-06 20:15 | 46.76212 | -2.96335 | 33991 ft | 425 kts | 14° |
| 2026-05-06 20:15 | 46.81896 | -2.93983 | 33990 ft | 425 kts | 14° |
| 2026-05-06 20:16 | 46.87584 | -2.91629 | 33987 ft | 424 kts | 14° |
| 2026-05-06 20:16 | 46.93260 | -2.89278 | 33991 ft | 424 kts | 14° |
| 2026-05-06 20:17 | 46.98939 | -2.86919 | 33990 ft | 424 kts | 14° |
| 2026-05-06 20:17 | 47.04613 | -2.84555 | 33986 ft | 424 kts | 14° |
| 2026-05-06 20:18 | 47.10290 | -2.82187 | 33987 ft | 424 kts | 14° |
| 2026-05-06 20:18 | 47.15963 | -2.79813 | 33991 ft | 424 kts | 14° |
| 2026-05-06 20:19 | 47.21632 | -2.77435 | 33989 ft | 424 kts | 14° |
| 2026-05-06 20:19 | 47.27256 | -2.75078 | 33989 ft | 424 kts | 14° |
| 2026-05-06 20:20 | 47.32930 | -2.72691 | 33989 ft | 424 kts | 14° |
| 2026-05-06 20:20 | 47.38601 | -2.70299 | 33992 ft | 424 kts | 14° |
| 2026-05-06 20:21 | 47.44268 | -2.67899 | 34002 ft | 423 kts | 14° |
| 2026-05-06 20:21 | 47.49932 | -2.65503 | 34000 ft | 423 kts | 14° |
| 2026-05-06 20:22 | 47.55585 | -2.63101 | 34001 ft | 422 kts | 14° |
| 2026-05-06 20:22 | 47.61232 | -2.60696 | 34001 ft | 422 kts | 14° |
| 2026-05-06 20:23 | 47.66873 | -2.58290 | 33992 ft | 422 kts | 15° |
| 2026-05-06 20:23 | 47.72517 | -2.55874 | 33991 ft | 422 kts | 15° |
| 2026-05-06 20:24 | 47.78155 | -2.53455 | 33991 ft | 422 kts | 15° |
| 2026-05-06 20:24 | 47.83791 | -2.51048 | 33998 ft | 421 kts | 15° |
| 2026-05-06 20:25 | 47.89419 | -2.48620 | 34004 ft | 420 kts | 15° |
| 2026-05-06 20:25 | 47.95032 | -2.46195 | 33999 ft | 420 kts | 15° |
| 2026-05-06 20:26 | 48.00647 | -2.43747 | 33993 ft | 420 kts | 15° |
| 2026-05-06 20:26 | 48.06262 | -2.41292 | 33993 ft | 421 kts | 15° |
| 2026-05-06 20:27 | 48.11891 | -2.38862 | 33995 ft | 421 kts | 15° |
| 2026-05-06 20:27 | 48.17527 | -2.36423 | 33997 ft | 421 kts | 15° |
| 2026-05-06 20:28 | 48.23149 | -2.33975 | 33996 ft | 421 kts | 15° |
| 2026-05-06 20:28 | 48.28757 | -2.31499 | 34000 ft | 421 kts | 15° |
| 2026-05-06 20:29 | 48.34403 | -2.29023 | 34003 ft | 421 kts | 15° |
| 2026-05-06 20:29 | 48.40037 | -2.26569 | 34002 ft | 421 kts | 15° |
| 2026-05-06 20:30 | 48.48477 | -2.22846 | 33999 ft | 422 kts | 15° |
| 2026-05-06 20:31 | 48.54115 | -2.20351 | 34001 ft | 423 kts | 15° |
| 2026-05-06 20:31 | 48.59758 | -2.17858 | 33994 ft | 423 kts | 15° |
| 2026-05-06 20:32 | 48.65411 | -2.15340 | 33992 ft | 423 kts | 15° |
| 2026-05-06 20:32 | 48.71056 | -2.12830 | 33995 ft | 424 kts | 15° |
| 2026-05-06 20:33 | 48.76682 | -2.10322 | 34008 ft | 424 kts | 15° |
| 2026-05-06 20:33 | 48.82384 | -2.07771 | 34000 ft | 425 kts | 15° |
| 2026-05-06 20:34 | 48.88021 | -2.05250 | 34001 ft | 425 kts | 15° |
| 2026-05-06 20:34 | 48.93699 | -2.02710 | 34015 ft | 426 kts | 15° |
| 2026-05-06 20:35 | 48.99347 | -2.00152 | 34015 ft | 427 kts | 15° |
| 2026-05-06 20:35 | 49.05070 | -1.97566 | 34016 ft | 426 kts | 15° |
| 2026-05-06 20:36 | 49.10763 | -1.94988 | 34023 ft | 427 kts | 15° |
| 2026-05-06 20:36 | 49.16441 | -1.92410 | 34020 ft | 423 kts | 15° |
| 2026-05-06 20:37 | 49.22063 | -1.89857 | 34025 ft | 422 kts | 15° |
| 2026-05-06 20:37 | 49.27744 | -1.87264 | 34034 ft | 429 kts | 15° |
| 2026-05-06 20:38 | 49.33474 | -1.84648 | 34025 ft | 430 kts | 15° |
| 2026-05-06 20:38 | 49.39204 | -1.82022 | 34020 ft | 430 kts | 15° |
| 2026-05-06 20:39 | 49.44942 | -1.79389 | 34013 ft | 430 kts | 15° |
| 2026-05-06 20:39 | 49.50660 | -1.76760 | 34019 ft | 427 kts | 15° |
| 2026-05-06 20:40 | 49.56286 | -1.74158 | 34011 ft | 423 kts | 15° |
| 2026-05-06 20:40 | 49.61968 | -1.71334 | 34022 ft | 432 kts | 18° |
| 2026-05-06 20:41 | 49.67627 | -1.68219 | 34019 ft | 432 kts | 18° |
| 2026-05-06 20:41 | 49.73279 | -1.65092 | 33973 ft | 427 kts | 18° |
| 2026-05-06 20:41 | 49.76076 | -1.63541 | 33664 ft | 429 kts | 18° |
| 2026-05-06 20:42 | 49.78893 | -1.61981 | 33403 ft | 431 kts | 18° |
| 2026-05-06 20:42 | 49.81474 | -1.60551 | 33156 ft | 432 kts | 18° |
| 2026-05-06 20:42 | 49.84274 | -1.58996 | 32897 ft | 432 kts | 18° |
| 2026-05-06 20:42 | 49.87105 | -1.57418 | 32532 ft | 430 kts | 18° |
| 2026-05-06 20:43 | 49.89949 | -1.55835 | 32043 ft | 427 kts | 18° |
| 2026-05-06 20:43 | 49.92682 | -1.54314 | 31526 ft | 425 kts | 18° |
| 2026-05-06 20:43 | 49.95473 | -1.52760 | 30983 ft | 423 kts | 18° |
| 2026-05-06 20:43 | 49.98234 | -1.51216 | 30468 ft | 421 kts | 18° |
| 2026-05-06 20:44 | 50.00996 | -1.49741 | 29952 ft | 418 kts | 16° |
| 2026-05-06 20:44 | 50.03770 | -1.48376 | 29408 ft | 417 kts | 16° |
| 2026-05-06 20:44 | 50.06570 | -1.47005 | 28863 ft | 415 kts | 16° |
| 2026-05-06 20:44 | 50.09284 | -1.45685 | 28341 ft | 413 kts | 16° |
| 2026-05-06 20:45 | 50.12018 | -1.44350 | 27828 ft | 411 kts | 16° |
| 2026-05-06 20:45 | 50.14742 | -1.43019 | 27336 ft | 408 kts | 16° |
| 2026-05-06 20:45 | 50.17444 | -1.41699 | 26813 ft | 406 kts | 16° |
| 2026-05-06 20:45 | 50.20133 | -1.40382 | 26291 ft | 404 kts | 16° |
| 2026-05-06 20:46 | 50.22808 | -1.39072 | 25779 ft | 402 kts | 16° |
| 2026-05-06 20:46 | 50.25469 | -1.37763 | 25276 ft | 400 kts | 16° |
| 2026-05-06 20:46 | 50.28115 | -1.36452 | 24767 ft | 397 kts | 17° |
| 2026-05-06 20:46 | 50.30624 | -1.34616 | 23945 ft | 403 kts | 31° |
| 2026-05-06 20:47 | 50.32899 | -1.32068 | 23331 ft | 401 kts | 35° |
| 2026-05-06 20:47 | 50.35115 | -1.29453 | 22820 ft | 396 kts | 36° |
| 2026-05-06 20:47 | 50.37211 | -1.26987 | 22361 ft | 391 kts | 35° |
| 2026-05-06 20:47 | 50.39352 | -1.24486 | 21868 ft | 386 kts | 35° |
| 2026-05-06 20:48 | 50.41504 | -1.21984 | 21357 ft | 382 kts | 35° |
| 2026-05-06 20:48 | 50.43621 | -1.19518 | 20869 ft | 378 kts | 35° |
| 2026-05-06 20:48 | 50.45710 | -1.17082 | 20399 ft | 373 kts | 35° |
| 2026-05-06 20:48 | 50.47781 | -1.14665 | 19936 ft | 369 kts | 35° |
| 2026-05-06 20:49 | 50.49825 | -1.12286 | 19500 ft | 364 kts | 35° |
| 2026-05-06 20:49 | 50.51848 | -1.09931 | 19076 ft | 360 kts | 35° |
| 2026-05-06 20:49 | 50.53854 | -1.07592 | 18658 ft | 359 kts | 35° |
| 2026-05-06 20:49 | 50.55710 | -1.05423 | 18264 ft | 359 kts | 35° |
| 2026-05-06 20:50 | 50.57731 | -1.03060 | 17838 ft | 359 kts | 35° |
| 2026-05-06 20:50 | 50.59732 | -1.00708 | 17435 ft | 360 kts | 35° |
| 2026-05-06 20:50 | 50.61736 | -0.98357 | 17015 ft | 360 kts | 35° |
| 2026-05-06 20:50 | 50.63741 | -0.96001 | 16593 ft | 360 kts | 35° |
| 2026-05-06 20:51 | 50.65749 | -0.93644 | 16162 ft | 360 kts | 35° |
| 2026-05-06 20:51 | 50.67750 | -0.91292 | 15755 ft | 358 kts | 36° |
| 2026-05-06 20:51 | 50.69239 | -0.89211 | 15224 ft | 360 kts | 47° |
| 2026-05-06 20:51 | 50.70574 | -0.85880 | 14648 ft | 361 kts | 65° |
| 2026-05-06 20:52 | 50.71484 | -0.82204 | 14146 ft | 358 kts | 69° |
| 2026-05-06 20:52 | 50.72332 | -0.78531 | 13599 ft | 356 kts | 69° |
| 2026-05-06 20:52 | 50.73173 | -0.74892 | 13135 ft | 351 kts | 69° |
| 2026-05-06 20:52 | 50.74019 | -0.71289 | 12599 ft | 349 kts | 68° |
| 2026-05-06 20:53 | 50.74866 | -0.67711 | 12119 ft | 345 kts | 68° |
| 2026-05-06 20:53 | 50.75811 | -0.64239 | 11655 ft | 343 kts | 57° |
| 2026-05-06 20:53 | 50.77360 | -0.61431 | 11202 ft | 339 kts | 37° |
| 2026-05-06 20:53 | 50.79390 | -0.59680 | 10737 ft | 329 kts | 18° |
| 2026-05-06 20:54 | 50.81537 | -0.58729 | 10241 ft | 318 kts | 12° |
| 2026-05-06 20:54 | 50.82273 | -0.58457 | 10065 ft | 314 kts | 11° |
| 2026-05-06 20:55 | 50.84326 | -0.57738 | 9507 ft | 308 kts | 11° |
| 2026-05-06 20:55 | 50.86393 | -0.57030 | 8983 ft | 300 kts | 11° |
| 2026-05-06 20:55 | 50.88408 | -0.56339 | 8496 ft | 292 kts | 11° |
| 2026-05-06 20:55 | 50.90355 | -0.55673 | 8021 ft | 284 kts | 11° |
| 2026-05-06 20:56 | 50.91626 | -0.55240 | 7685 ft | 280 kts | 11° |
| 2026-05-06 20:56 | 50.93507 | -0.54609 | 7223 ft | 273 kts | 11° |
| 2026-05-06 20:56 | 50.95951 | -0.53798 | 6624 ft | 267 kts | 11° |
| 2026-05-06 20:56 | 50.97159 | -0.53397 | 6310 ft | 265 kts | 11° |
| 2026-05-06 20:57 | 50.98951 | -0.52815 | 5881 ft | 263 kts | 11° |
| 2026-05-06 20:57 | 51.00744 | -0.52257 | 5520 ft | 261 kts | 10° |
| 2026-05-06 20:57 | 51.02520 | -0.51704 | 5076 ft | 259 kts | 11° |
| 2026-05-06 20:57 | 51.04275 | -0.51153 | 4618 ft | 256 kts | 11° |
| 2026-05-06 20:58 | 51.06020 | -0.50610 | 4184 ft | 253 kts | 11° |
| 2026-05-06 20:58 | 51.07377 | -0.50192 | 3837 ft | 251 kts | 11° |
| 2026-05-06 20:58 | 51.09079 | -0.49673 | 3407 ft | 247 kts | 11° |
| 2026-05-06 20:58 | 51.10628 | -0.48637 | 3042 ft | 241 kts | 40° |
| 2026-05-06 20:59 | 51.11516 | -0.46437 | 2978 ft | 234 kts | 73° |
| 2026-05-06 20:59 | 51.11721 | -0.43968 | 2971 ft | 217 kts | 84° |
| 2026-05-06 20:59 | 51.11815 | -0.41639 | 2810 ft | 206 kts | 82° |
| 2026-05-06 20:59 | 51.11996 | -0.39527 | 2648 ft | 193 kts | 79° |
| 2026-05-06 21:00 | 51.12074 | -0.38862 | 2570 ft | 190 kts | 77° |
| 2026-05-06 21:00 | 51.12311 | -0.37168 | 2343 ft | 186 kts | 77° |
| 2026-05-06 21:00 | 51.12585 | -0.35179 | 2069 ft | 181 kts | 77° |
| 2026-05-06 21:00 | 51.12845 | -0.33291 | 1850 ft | 167 kts | 77° |
| 2026-05-06 21:01 | 51.13085 | -0.31547 | 1636 ft | 158 kts | 77° |
| 2026-05-06 21:01 | 51.13306 | -0.29946 | 1404 ft | 137 kts | 78° |
| 2026-05-06 21:01 | 51.13510 | -0.28466 | 1185 ft | 134 kts | 78° |
| 2026-05-06 21:01 | 51.13705 | -0.27051 | 1013 ft | 134 kts | 78° |
| 2026-05-06 21:02 | 51.13872 | -0.25840 | 837 ft | 134 kts | 78° |
| 2026-05-06 21:02 | 51.14073 | -0.24385 | 675 ft | 134 kts | 78° |
| 2026-05-06 21:02 | 51.14273 | -0.22932 | 511 ft | 134 kts | 78° |
| 2026-05-06 21:02 | 51.14473 | -0.21486 | 333 ft | 134 kts | 78° |
| 2026-05-06 21:03 | 51.14678 | -0.20054 | 221 ft | 126 kts | 77° |
| 2026-05-06 21:03 | 51.14832 | -0.18921 | 213 ft | 75 kts | 77° |
| 2026-05-06 21:03 | 51.14916 | -0.18289 | 213 ft | 40 kts | 77° |
| 2026-05-06 21:03 | 51.15011 | -0.17907 | 215 ft | 25 kts | 55° |
| 2026-05-06 21:04 | 51.15098 | -0.17773 | 211 ft | 13 kts | 9° |
| 2026-05-06 21:04 | 51.15177 | -0.17782 | 211 ft | 8 kts | 351° |
| 2026-05-06 21:04 | 51.15191 | -0.17786 | 210 ft | 0 kts | 349° |
| 2026-05-06 21:06 | 51.15195 | -0.17787 | 210 ft | 2 kts | 349° |
| 2026-05-06 21:06 | 51.15219 | -0.17790 | 210 ft | 5 kts | 3° |
| 2026-05-06 21:06 | 51.15254 | -0.17755 | 210 ft | 8 kts | 60° |
| 2026-05-06 21:06 | 51.15273 | -0.17656 | 210 ft | 11 kts | 77° |
| 2026-05-06 21:07 | 51.15291 | -0.17523 | 210 ft | 13 kts | 79° |
| 2026-05-06 21:07 | 51.15309 | -0.17410 | 210 ft | 7 kts | 57° |
| 2026-05-06 21:07 | 51.15357 | -0.17375 | 210 ft | 9 kts | 355° |
| 2026-05-06 21:07 | 51.15427 | -0.17402 | 210 ft | 11 kts | 349° |
| 2026-05-06 21:08 | 51.15509 | -0.17428 | 210 ft | 13 kts | 348° |
| 2026-05-06 21:08 | 51.15602 | -0.17461 | 210 ft | 14 kts | 345° |
| 2026-05-06 21:08 | 51.15696 | -0.17496 | 210 ft | 12 kts | 348° |
| 2026-05-06 21:08 | 51.15762 | -0.17479 | 210 ft | 10 kts | 50° |
| 2026-05-06 21:09 | 51.15786 | -0.17421 | 210 ft | 6 kts | 27° |
| 2026-05-06 21:09 | 51.15826 | -0.17425 | 210 ft | 2 kts | 347° |
| 2026-05-06 21:09 | 51.15844 | -0.17431 | 210 ft | 3 kts | 346° |
| 2026-05-06 21:09 | 51.15851 | -0.17434 | 210 ft | 0 kts | 347° |
| 2026-05-06 21:10 | 51.15852 | -0.17434 | 210 ft | 0 kts | 347° |